• Join FlightAware (Why Join?)
  • Login
  • US Flag 
03:49PM EDT


 

Airport Tracker/Info


-or-


 

Live Flight TrackerFlight Track Log ✈ SIL3622 ✈ 15-Apr-2013 ✈ KGLH - KTUP

Flight Track Log - Related Links

Times and Time Zones

All times are in EDT time to prevent confusion due to time zone crossing. See the SIL3622 flight status page for this flight to view local times or setup timezone preferences in your user account.

Time Position Orientation Groundspeed Altitude Reporting Facility
EDT Latitude Longitude Course Direction KTS MPH feet Rate Location/Type
05:17PM 33.4953 -90.9128 90° East 245 282 3,300  Level Memphis Center
05:18PM 33.5122 -90.8531 71° East 208 239 4,600 1,320 Climbing Memphis Center
05:19PM 33.5125 -90.7883 90° East 183 211 6,000 1,320 Climbing Memphis Center
05:20PM 33.5169 -90.7236 85° East 183 211 7,300 1,200 Climbing Memphis Center
05:21PM 33.5169 -90.6561 90° East 183 211 8,400 1,140 Climbing Memphis Center
05:22PM 33.4833 -90.5519 90° East  Level FlightAware Approximate
05:22PM 33.5172 -90.5889 90° East 193 222 9,600  Level Memphis Center
05:23PM 33.5319 -90.5267 74° East 193 222 10,600 660 Climbing Memphis Center
05:24PM 33.5653 -90.4594 59° Northeast 207 238 11,000 180 Climbing Memphis Center
05:25PM 33.6008 -90.3847 60° Northeast 232 267 11,000  Level Memphis Center
05:26PM 33.6342 -90.2997 65° Northeast 258 297 11,000  Level Memphis Center
05:27PM 33.6675 -90.2150 65° Northeast 268 308 11,000  Level Memphis Center
05:28PM 33.6986 -90.1325 66° East 268 308 11,000  Level Memphis Center
05:29PM 33.7278 -90.0425 69° East 274 315 11,000  Level Memphis Center
05:30PM 33.7589 -89.9575 66° East 274 315 11,000  Level Memphis Center
05:31PM 33.7919 -89.8722 65° Northeast 274 315 11,000  Level Memphis Center
05:32PM 33.8269 -89.7769 66° East 274 315 11,000  Level Memphis Center
05:33PM 33.8600 -89.6919 65° Northeast 274 315 11,000  Level Memphis Center
05:34PM 33.8928 -89.6064 65° Northeast 274 315 11,000 -360 Level Memphis Center
05:35PM 33.9217 -89.5286 66° East 274 315 10,300 -900 Descending Memphis Center
05:36PM 33.9503 -89.4483 67° East 274 315 9,300 -1,020 Descending Memphis Center
05:37PM 33.9789 -89.3678 67° East 269 310 8,300 -960 Descending Memphis Center
05:38PM 34.0264 -89.3197 40° Northeast 234 269 7,400 -900 Descending Memphis Center
05:39PM 34.0719 -89.2839 33° Northeast 200 230 6,600 -840 Descending Memphis Center
05:40PM 34.1114 -89.2483 37° Northeast 184 212 5,800 -780 Descending Memphis Center
05:41PM 34.1506 -89.2050 42° Northeast 184 212 5,100 -480 Descending Memphis Center
05:42PM 34.1919 -89.1694 35° Northeast 184 212 4,900 -300 Descending Memphis Center
05:43PM 34.2417 -89.1261 36° Northeast 184 212 4,500 -720 Descending Memphis Center
05:44PM 34.2956 -89.0775 37° Northeast 214 246 3,500 -780 Descending Memphis Center
05:45PM 34.3431 -89.0339 37° Northeast 220 253 3,000 -300 Descending Memphis Center
05:46PM 34.3528 -88.9811 77° East 179 206 2,900 -60 Descending Memphis Center
05:47PM 34.3458 -88.9233 98° East 163 188 2,900 -300 Level Memphis Center
05:48PM 34.3411 -88.8631 95° East 175 201 2,400 -360 Descending Memphis Center
05:49PM 34.3342 -88.8053 98° East 175 201 2,200 -240 Descending Memphis Center